createdAt,value
2023-04-15T00:00:39.324Z,3.6205
2023-04-15T00:01:43.276Z,4.5607
2023-04-15T00:02:47.318Z,4.3732
2023-04-15T00:03:51.460Z,4.5923
2023-04-15T00:04:55.711Z,4.1730
2023-04-15T00:05:59.577Z,3.3564
2023-04-15T00:07:03.699Z,3.2093
2023-04-15T00:08:07.584Z,2.8987
2023-04-15T00:09:11.469Z,3.1423
2023-04-15T00:10:15.365Z,4.3871
2023-04-15T00:11:19.269Z,4.0355
2023-04-15T00:12:23.155Z,3.3708
2023-04-15T00:13:27.055Z,3.7969
2023-04-15T00:14:31.170Z,3.5897
2023-04-15T00:15:35.064Z,5.1200
2023-04-15T00:16:39.072Z,3.7185
2023-04-15T00:17:43.015Z,4.2772
2023-04-15T00:18:46.914Z,4.1332
2023-04-15T00:19:50.783Z,4.3008
2023-04-15T00:20:54.692Z,3.8156
2023-04-15T00:21:58.816Z,4.1693
2023-04-15T00:23:02.684Z,3.6864
2023-04-15T00:24:06.557Z,3.4475
2023-04-15T00:25:10.479Z,4.4925
2023-04-15T00:26:14.377Z,3.6282
2023-04-15T00:27:18.255Z,3.1684
2023-04-15T00:28:22.141Z,3.9983
2023-04-15T00:29:26.051Z,3.9107
2023-04-15T00:30:29.959Z,3.5434
2023-04-15T00:31:33.972Z,4.3599
2023-04-15T00:32:37.926Z,3.8717
2023-04-15T00:33:41.783Z,4.2542
2023-04-15T00:34:45.924Z,4.6549
2023-04-15T00:35:49.805Z,3.1999
2023-04-15T00:36:53.933Z,4.3898
2023-04-15T00:37:57.809Z,3.3351
2023-04-15T00:39:01.843Z,3.9590
2023-04-15T00:40:05.821Z,4.6923
2023-04-15T00:41:09.705Z,4.3746
2023-04-15T00:42:13.605Z,3.9150
2023-04-15T00:43:17.487Z,4.3452
2023-04-15T00:44:21.608Z,3.0876
2023-04-15T00:45:25.470Z,4.2210
2023-04-15T00:46:29.381Z,3.6826
2023-04-15T00:47:33.276Z,4.1689
2023-04-15T00:48:37.167Z,4.2817
2023-04-15T00:49:41.044Z,3.0416
2023-04-15T00:50:44.968Z,3.6393
2023-04-15T00:51:48.839Z,3.4734
2023-04-15T00:52:52.753Z,4.1379
2023-04-15T00:53:56.627Z,5.0226
2023-04-15T00:55:00.775Z,2.8936
2023-04-15T00:56:04.681Z,4.5260
2023-04-15T00:57:08.561Z,4.6316
2023-04-15T00:58:12.464Z,4.0500
2023-04-15T00:59:16.342Z,3.6462
2023-04-15T01:00:20.250Z,3.9314
2023-04-15T01:01:24.466Z,4.3647
2023-04-15T01:02:28.519Z,3.7671
2023-04-15T01:03:32.652Z,4.5662
2023-04-15T01:04:36.848Z,3.7223
2023-04-15T01:05:40.758Z,3.3303
2023-04-15T01:06:41.199Z,4.4554
2023-04-15T01:07:45.073Z,3.6211
2023-04-15T01:08:48.956Z,4.1217
2023-04-15T01:09:52.841Z,3.9297
2023-04-15T01:10:56.736Z,3.2025
2023-04-15T01:12:00.624Z,4.7447
2023-04-15T01:13:04.535Z,4.2662
2023-04-15T01:14:08.418Z,3.9524
2023-04-15T01:15:12.333Z,3.9235
2023-04-15T01:16:16.269Z,4.3588
2023-04-15T01:17:20.191Z,3.5902
2023-04-15T01:18:24.052Z,4.1166
2023-04-15T01:19:27.952Z,4.2721
2023-04-15T01:20:31.833Z,4.3118
2023-04-15T01:21:35.979Z,3.8864
2023-04-15T01:22:39.867Z,3.7507
2023-04-15T01:23:43.759Z,4.7645
2023-04-15T01:24:47.649Z,4.2928
2023-04-15T01:25:51.543Z,5.4832
2023-04-15T01:26:55.447Z,4.3031
2023-04-15T01:27:59.337Z,4.8555
2023-04-15T01:29:03.241Z,4.4584
2023-04-15T01:30:07.116Z,3.6709
2023-04-15T01:31:11.089Z,5.3203
2023-04-15T01:32:15.007Z,4.3903
2023-04-15T01:33:18.889Z,5.3406
2023-04-15T01:34:22.783Z,5.2270
2023-04-15T01:35:26.664Z,4.0629
2023-04-15T01:36:30.573Z,4.5925
2023-04-15T01:37:34.697Z,4.5119
2023-04-15T01:38:38.587Z,4.8427
2023-04-15T01:39:42.478Z,4.8252
2023-04-15T01:40:46.382Z,5.4075
2023-04-15T01:41:50.491Z,4.5979
2023-04-15T01:42:54.401Z,4.9800
2023-04-15T01:43:58.278Z,4.5458
2023-04-15T01:45:02.200Z,4.4149
2023-04-15T01:46:06.070Z,4.6575
2023-04-15T01:47:10.191Z,4.1676
2023-04-15T01:48:14.092Z,4.8896
2023-04-15T01:49:17.985Z,4.6508
2023-04-15T01:50:21.888Z,5.1048
2023-04-15T01:51:25.761Z,5.5728
2023-04-15T01:52:29.903Z,3.8513
2023-04-15T01:53:33.786Z,3.2163
2023-04-15T01:54:37.714Z,4.0826
2023-04-15T01:55:41.589Z,4.4055
2023-04-15T01:56:41.927Z,4.2376
2023-04-15T01:57:45.818Z,4.3522
2023-04-15T01:58:49.726Z,3.9375
2023-04-15T01:59:53.612Z,3.4781
2023-04-15T02:00:57.586Z,4.1203
2023-04-15T02:02:01.462Z,3.9446
2023-04-15T02:03:05.577Z,4.2268
2023-04-15T02:04:05.822Z,5.2495
2023-04-15T02:06:14.427Z,4.9510
2023-04-15T02:07:18.590Z,4.8814
2023-04-15T02:08:23.007Z,4.7717
2023-04-15T02:09:26.912Z,4.2292
2023-04-15T02:10:31.687Z,4.6180
2023-04-15T02:11:35.568Z,4.5045
2023-04-15T02:12:39.454Z,5.5169
2023-04-15T02:13:43.373Z,4.9117
2023-04-15T02:14:47.262Z,5.3771
2023-04-15T02:15:51.150Z,5.3986
2023-04-15T02:16:55.287Z,4.5691
2023-04-15T02:17:59.204Z,3.7367
2023-04-15T02:19:03.399Z,4.8885
2023-04-15T02:20:07.247Z,4.2437
2023-04-15T02:21:11.110Z,3.4144
2023-04-15T02:22:14.993Z,5.2792
2023-04-15T02:23:18.891Z,5.2485
2023-04-15T02:24:22.807Z,4.3601
2023-04-15T02:25:26.689Z,4.5967
2023-04-15T02:26:30.600Z,4.2208
2023-04-15T02:27:34.508Z,4.3218
2023-04-15T02:28:38.421Z,3.9337
2023-04-15T02:29:42.303Z,4.6542
2023-04-15T02:30:46.189Z,3.7865
2023-04-15T02:31:50.125Z,4.4945
2023-04-15T02:32:54.058Z,3.2875
2023-04-15T02:33:57.948Z,3.2939
2023-04-15T02:35:01.854Z,4.7665
2023-04-15T02:36:05.736Z,4.4369
2023-04-15T02:37:06.147Z,5.3345
2023-04-15T02:38:10.031Z,5.1028
2023-04-15T02:39:13.917Z,4.4587
2023-04-15T02:40:17.805Z,3.9558
2023-04-15T02:41:21.705Z,4.9112
2023-04-15T02:42:25.614Z,5.4357
2023-04-15T02:43:29.501Z,4.6340
2023-04-15T02:44:33.627Z,4.2231
2023-04-15T02:45:37.563Z,4.9094
2023-04-15T02:46:41.691Z,4.0223
2023-04-15T02:47:45.590Z,5.2751
2023-04-15T02:48:49.463Z,4.3806
2023-04-15T02:49:53.350Z,4.4135
2023-04-15T02:50:57.230Z,5.3506
2023-04-15T02:52:01.149Z,4.3415
2023-04-15T02:53:05.026Z,4.3691
2023-04-15T02:54:08.929Z,5.3293
2023-04-15T02:55:12.866Z,5.5152
2023-04-15T02:56:16.713Z,4.1197
2023-04-15T02:57:20.621Z,4.5279
2023-04-15T02:58:24.507Z,4.6251
2023-04-15T02:59:28.735Z,4.1618
2023-04-15T03:00:32.636Z,4.0886
2023-04-15T03:01:36.796Z,5.4018
2023-04-15T03:02:40.737Z,4.5293
2023-04-15T03:03:44.742Z,4.6077
2023-04-15T03:04:48.710Z,5.4172
2023-04-15T03:05:52.618Z,4.4693
2023-04-15T03:06:56.478Z,3.8869
2023-04-15T03:08:00.379Z,4.3210
2023-04-15T03:09:04.278Z,4.0371
2023-04-15T03:10:08.156Z,5.4576
2023-04-15T03:11:12.062Z,4.0158
2023-04-15T03:12:15.945Z,5.1545
2023-04-15T03:13:19.846Z,3.8581
2023-04-15T03:14:23.716Z,3.9241
2023-04-15T03:15:27.668Z,4.4613
2023-04-15T03:16:31.535Z,4.3974
2023-04-15T03:17:35.453Z,3.9892
2023-04-15T03:18:39.319Z,4.6491
2023-04-15T03:19:43.232Z,5.7354
2023-04-15T03:20:47.184Z,5.1373
2023-04-15T03:21:51.030Z,4.4168
2023-04-15T03:22:54.921Z,5.5467
2023-04-15T03:23:58.815Z,4.4379
2023-04-15T03:25:02.710Z,4.4972
2023-04-15T03:26:06.810Z,5.1452
2023-04-15T03:27:10.710Z,5.0066
2023-04-15T03:28:14.614Z,4.6727
2023-04-15T03:29:14.979Z,5.2907
2023-04-15T03:30:18.875Z,4.5974
2023-04-15T03:31:23.062Z,4.5950
2023-04-15T03:32:27.005Z,4.1287
2023-04-15T03:33:30.842Z,3.9648
2023-04-15T03:34:34.948Z,4.5239
2023-04-15T03:35:38.836Z,4.7450
2023-04-15T03:36:42.723Z,3.4264
2023-04-15T03:37:46.597Z,5.0487
2023-04-15T03:38:50.522Z,5.8602
2023-04-15T03:39:54.400Z,4.4591
2023-04-15T03:40:58.274Z,5.2158
2023-04-15T03:42:02.337Z,4.8263
2023-04-15T03:43:06.225Z,4.5465
2023-04-15T03:44:10.498Z,4.6793
2023-04-15T03:45:14.403Z,6.0497
2023-04-15T03:46:18.330Z,5.0997
2023-04-15T03:47:22.223Z,4.9019
2023-04-15T03:48:26.087Z,4.5086
2023-04-15T03:49:30.282Z,5.1180
2023-04-15T03:50:34.170Z,5.2742
2023-04-15T03:51:38.043Z,4.2626
2023-04-15T03:52:41.958Z,4.7523
2023-04-15T03:53:45.860Z,5.2513
2023-04-15T03:54:49.749Z,4.6917
2023-04-15T03:55:53.644Z,4.4938
2023-04-15T03:56:57.528Z,4.6124
2023-04-15T03:58:01.431Z,5.3171
2023-04-15T03:59:05.336Z,5.9076
2023-04-15T04:00:09.240Z,4.8906
2023-04-15T04:01:13.144Z,4.2244
2023-04-15T04:02:17.121Z,4.8107
2023-04-15T04:03:21.235Z,3.9933
2023-04-15T04:04:25.406Z,5.2558
2023-04-15T04:05:29.280Z,4.1890
2023-04-15T04:06:33.189Z,3.8227
2023-04-15T04:07:37.065Z,4.7361
2023-04-15T04:08:40.937Z,4.9583
2023-04-15T04:09:46.630Z,4.3237
2023-04-15T04:10:45.768Z,4.0912
2023-04-15T04:11:50.412Z,4.5247
2023-04-15T04:12:54.306Z,4.9699
2023-04-15T04:13:58.187Z,4.6646
2023-04-15T04:15:02.082Z,3.7296
2023-04-15T04:16:02.301Z,2.9007
2023-04-15T04:17:06.368Z,4.6362
2023-04-15T04:18:10.289Z,3.7890
2023-04-15T04:19:14.387Z,4.3000
2023-04-15T04:20:18.260Z,3.6990
2023-04-15T04:21:22.154Z,3.4455
2023-04-15T04:22:26.039Z,3.4488
2023-04-15T04:23:29.948Z,3.0981
2023-04-15T04:24:34.053Z,2.5596
2023-04-15T04:25:37.955Z,2.6148
2023-04-15T04:26:42.055Z,2.7375
2023-04-15T04:27:45.996Z,2.3210
2023-04-15T04:28:49.870Z,3.0094
2023-04-15T04:29:53.769Z,3.0475
2023-04-15T04:30:57.659Z,2.4962
2023-04-15T04:32:01.611Z,2.7990
2023-04-15T04:33:05.583Z,1.8266
2023-04-15T04:34:09.706Z,2.4163
2023-04-15T04:35:13.596Z,2.0489
2023-04-15T04:36:17.463Z,2.5704
2023-04-15T04:37:21.362Z,2.9626
2023-04-15T04:38:25.277Z,3.6448
2023-04-15T04:39:29.373Z,2.1379
2023-04-15T04:40:33.264Z,2.6428
2023-04-15T04:41:37.131Z,1.9521
2023-04-15T04:42:41.082Z,2.5611
2023-04-15T04:43:45.189Z,2.0923
2023-04-15T04:44:49.058Z,1.5959
2023-04-15T04:45:52.969Z,1.8802
2023-04-15T04:46:57.050Z,2.6592
2023-04-15T04:48:01.042Z,2.2707
2023-04-15T04:49:05.084Z,1.9497
2023-04-15T04:50:09.001Z,2.1173
2023-04-15T04:51:12.881Z,2.1206
2023-04-15T04:52:16.783Z,1.6859
2023-04-15T04:53:20.670Z,1.4659
2023-04-15T04:54:24.584Z,2.1566
2023-04-15T04:55:28.474Z,1.7814
2023-04-15T04:56:32.358Z,1.1913
2023-04-15T04:57:36.257Z,1.8701
2023-04-15T04:58:36.628Z,2.0883
2023-04-15T04:59:40.529Z,1.9769
2023-04-15T05:00:44.422Z,1.8610
2023-04-15T05:01:48.431Z,1.5891
2023-04-15T05:02:52.609Z,1.7767
2023-04-15T05:03:56.656Z,1.4946
2023-04-15T05:05:00.641Z,1.6403
2023-04-15T05:06:04.521Z,2.2026
2023-04-15T05:07:08.457Z,2.3229
2023-04-15T05:08:12.348Z,1.8475
2023-04-15T05:09:16.428Z,1.9305
2023-04-15T05:10:20.327Z,1.7452
2023-04-15T05:11:24.220Z,1.4941
2023-04-15T05:12:28.101Z,1.7884
2023-04-15T05:13:31.977Z,1.3916
2023-04-15T05:14:35.886Z,2.3083
2023-04-15T05:15:39.879Z,1.8054
2023-04-15T05:16:43.787Z,1.8750
2023-04-15T05:17:47.750Z,1.5052
2023-04-15T05:18:51.611Z,1.3113
2023-04-15T05:19:55.522Z,1.6595
2023-04-15T05:20:59.427Z,1.7016
2023-04-15T05:22:03.306Z,2.3247
2023-04-15T05:23:07.183Z,1.9153
2023-04-15T05:24:11.077Z,1.5504
2023-04-15T05:25:14.988Z,1.7627
2023-04-15T05:26:19.146Z,1.4179
2023-04-15T05:27:23.045Z,1.6475
2023-04-15T05:28:27.183Z,1.5454
2023-04-15T05:29:31.073Z,1.9112
2023-04-15T05:30:34.975Z,1.0966
2023-04-15T05:31:38.896Z,1.4773
2023-04-15T05:32:42.777Z,1.7027
2023-04-15T05:33:46.659Z,1.0946
2023-04-15T05:34:50.559Z,1.4324
2023-04-15T05:35:54.450Z,1.1633
2023-04-15T05:36:58.363Z,1.6147
2023-04-15T05:38:02.243Z,2.1815
2023-04-15T05:39:06.155Z,1.5241
2023-04-15T05:40:10.048Z,1.5202
2023-04-15T05:41:13.913Z,1.8061
2023-04-15T05:42:17.841Z,1.4642
2023-04-15T05:43:23.268Z,1.4377
2023-04-15T05:44:27.174Z,1.3430
2023-04-15T05:45:31.058Z,2.2192
2023-04-15T05:46:35.233Z,2.0895
2023-04-15T05:47:39.154Z,1.4551
2023-04-15T05:48:43.024Z,1.1534
2023-04-15T05:49:46.916Z,1.5864
2023-04-15T05:50:50.823Z,1.3531
2023-04-15T05:51:54.736Z,0.9231
2023-04-15T05:52:58.642Z,1.8315
2023-04-15T05:54:02.747Z,1.1216
2023-04-15T05:55:06.621Z,1.1522
2023-04-15T05:56:10.754Z,1.0300
2023-04-15T05:57:14.638Z,1.8951
2023-04-15T05:58:18.532Z,1.5633
2023-04-15T05:59:22.412Z,1.2852
2023-04-15T06:00:26.293Z,0.8680
2023-04-15T06:01:30.190Z,1.3949
2023-04-15T06:02:34.126Z,1.1782
2023-04-15T06:03:38.181Z,1.9597
2023-04-15T06:04:42.116Z,1.3890
2023-04-15T06:05:45.999Z,1.2784
2023-04-15T06:06:49.910Z,1.7159
2023-04-15T06:07:53.817Z,1.8099
2023-04-15T06:08:57.720Z,1.9212
2023-04-15T06:10:01.648Z,2.0336
2023-04-15T06:11:05.755Z,1.8805
2023-04-15T06:12:09.641Z,1.7884
2023-04-15T06:13:13.858Z,1.0872
2023-04-15T06:14:17.742Z,1.7272
2023-04-15T06:15:21.641Z,1.7318
2023-04-15T06:16:25.576Z,2.3495
2023-04-15T06:17:29.436Z,1.4998
2023-04-15T06:18:33.316Z,1.4321
2023-04-15T06:19:37.215Z,1.5119
2023-04-15T06:20:41.102Z,1.2128
2023-04-15T06:21:45.016Z,1.6007
2023-04-15T06:22:48.891Z,1.3705
2023-04-15T06:23:53.023Z,1.4723
2023-04-15T06:24:56.899Z,1.9329
2023-04-15T06:26:01.116Z,1.7611
2023-04-15T06:27:05.031Z,2.2448
2023-04-15T06:28:08.917Z,1.3426
2023-04-15T06:29:12.822Z,1.2076
2023-04-15T06:30:16.703Z,2.0581
2023-04-15T06:31:17.129Z,1.8179
2023-04-15T06:32:21.050Z,2.3083
2023-04-15T06:33:24.937Z,1.3697
2023-04-15T06:34:28.807Z,1.3790
2023-04-15T06:35:32.719Z,1.1065
2023-04-15T06:36:36.605Z,1.8683
2023-04-15T06:37:40.521Z,1.4794
2023-04-15T06:38:44.393Z,1.6737
2023-04-15T06:39:48.319Z,1.3238
2023-04-15T06:40:52.401Z,1.5954
2023-04-15T06:41:56.302Z,2.1031
2023-04-15T06:43:00.179Z,1.0758
2023-04-15T06:44:04.301Z,2.1795
2023-04-15T06:45:08.205Z,1.2741
2023-04-15T06:46:12.118Z,1.8080
2023-04-15T06:47:16.071Z,1.7184
2023-04-15T06:48:19.962Z,2.0014
2023-04-15T06:49:23.833Z,1.6134
2023-04-15T06:50:27.750Z,1.5416
2023-04-15T06:51:31.628Z,2.3093
2023-04-15T06:52:35.531Z,2.2021
2023-04-15T06:53:39.412Z,2.4006
2023-04-15T06:54:43.292Z,1.6190
2023-04-15T06:55:47.173Z,1.4370
2023-04-15T06:56:51.078Z,1.6758
2023-04-15T06:57:54.988Z,1.1168
2023-04-15T06:58:58.900Z,1.3142
2023-04-15T07:00:02.750Z,1.5547
2023-04-15T07:01:06.725Z,1.7200
2023-04-15T07:02:10.670Z,1.7789
2023-04-15T07:03:14.642Z,1.7761
2023-04-15T07:04:18.588Z,1.5133
2023-04-15T07:05:22.456Z,0.9152
2023-04-15T07:06:26.340Z,1.7578
2023-04-15T07:07:30.245Z,1.8356
2023-04-15T07:08:34.165Z,1.3375
2023-04-15T07:09:38.082Z,1.9209
2023-04-15T07:10:42.210Z,2.3591
2023-04-15T07:11:46.123Z,2.1495
2023-04-15T07:12:50.016Z,1.3178
2023-04-15T07:13:53.921Z,1.7234
2023-04-15T07:14:57.805Z,1.0880
2023-04-15T07:16:01.919Z,1.9223
2023-04-15T07:17:05.861Z,2.1343
2023-04-15T07:18:10.029Z,2.5793
2023-04-15T07:19:13.906Z,1.9305
2023-04-15T07:20:17.809Z,2.6693
2023-04-15T07:21:21.721Z,1.9296
2023-04-15T07:22:25.600Z,2.4920
2023-04-15T07:23:29.516Z,2.0272
2023-04-15T07:24:33.376Z,1.6503
2023-04-15T07:25:37.490Z,2.2737
2023-04-15T07:26:41.377Z,2.5777
2023-04-15T07:27:45.277Z,1.9368
2023-04-15T07:28:49.502Z,2.1482
2023-04-15T07:29:53.388Z,2.4519
2023-04-15T07:30:57.313Z,1.7674
2023-04-15T07:32:01.202Z,2.2458
2023-04-15T07:33:05.426Z,1.7792
2023-04-15T07:34:09.294Z,2.0479
2023-04-15T07:35:13.172Z,1.9762
2023-04-15T07:36:17.070Z,1.8657
2023-04-15T07:37:20.959Z,2.5848
2023-04-15T07:38:24.853Z,1.6216
2023-04-15T07:39:28.816Z,2.1632
2023-04-15T07:40:32.676Z,2.2635
2023-04-15T07:41:36.616Z,2.6015
2023-04-15T07:42:41.523Z,1.6487
2023-04-15T07:43:45.654Z,1.8025
2023-04-15T07:44:49.525Z,2.1919
2023-04-15T07:45:53.436Z,1.7047
2023-04-15T07:46:57.293Z,2.1196
2023-04-15T07:48:01.470Z,2.1873
2023-04-15T07:49:05.343Z,2.4262
2023-04-15T07:50:09.230Z,1.2441
2023-04-15T07:51:13.175Z,1.9475
2023-04-15T07:52:17.075Z,2.6430
2023-04-15T07:53:20.973Z,2.0463
2023-04-15T07:54:24.869Z,1.9188
2023-04-15T07:55:28.761Z,2.1745
2023-04-15T07:56:32.675Z,2.0955
2023-04-15T07:57:36.542Z,1.8121
2023-04-15T07:58:40.465Z,1.5903
2023-04-15T07:59:44.324Z,2.4437
2023-04-15T08:00:48.482Z,2.9016
2023-04-15T08:01:52.405Z,1.4420
2023-04-15T08:02:56.675Z,1.9264
2023-04-15T08:04:00.783Z,2.8196
2023-04-15T08:05:04.795Z,1.5640
2023-04-15T08:06:08.720Z,2.2856
2023-04-15T08:07:12.610Z,2.5343
2023-04-15T08:08:16.524Z,3.0875
2023-04-15T08:09:20.412Z,2.2702
2023-04-15T08:10:24.424Z,2.1863
2023-04-15T08:11:28.304Z,1.6470
2023-04-15T08:12:32.236Z,2.1268
2023-04-15T08:13:36.124Z,1.6710
2023-04-15T08:14:40.030Z,2.3787
2023-04-15T08:15:43.939Z,3.1037
2023-04-15T08:16:47.833Z,2.5698
2023-04-15T08:17:51.743Z,2.5904
2023-04-15T08:18:55.634Z,2.2951
2023-04-15T08:19:59.516Z,2.0495
2023-04-15T08:21:03.418Z,2.3077
2023-04-15T08:22:10.934Z,3.1119
2023-04-15T08:23:11.794Z,2.7679
2023-04-15T08:24:15.701Z,2.4282
2023-04-15T08:25:19.856Z,2.6517
2023-04-15T08:26:23.733Z,2.6938
2023-04-15T08:27:27.628Z,3.2453
2023-04-15T08:28:31.725Z,2.3023
2023-04-15T08:29:35.612Z,2.5804
2023-04-15T08:30:39.520Z,2.0214
2023-04-15T08:31:43.422Z,2.7843
2023-04-15T08:32:47.590Z,2.6981
2023-04-15T08:33:51.581Z,2.5558
2023-04-15T08:34:55.497Z,2.1348
2023-04-15T08:35:59.381Z,1.9987
2023-04-15T08:37:03.293Z,2.0758
2023-04-15T08:38:07.199Z,3.1798
2023-04-15T08:39:11.114Z,2.5647
2023-04-15T08:40:15.211Z,2.5106
2023-04-15T08:41:19.094Z,2.1246
2023-04-15T08:42:22.980Z,2.7066
2023-04-15T08:43:27.178Z,2.9710
2023-04-15T08:44:31.061Z,2.4444
2023-04-15T08:45:34.964Z,2.7239
2023-04-15T08:46:38.866Z,2.5309
2023-04-15T08:47:42.760Z,2.4838
2023-04-15T08:48:46.643Z,2.0632
2023-04-15T08:49:50.528Z,2.4077
2023-04-15T08:50:54.404Z,3.0455
2023-04-15T08:51:58.310Z,1.8742
2023-04-15T08:53:02.232Z,2.5624
2023-04-15T08:54:06.159Z,1.8133
2023-04-15T08:55:10.657Z,2.2371
2023-04-15T08:56:14.550Z,2.1924
2023-04-15T08:57:18.440Z,2.4976
2023-04-15T08:58:22.573Z,2.8080
2023-04-15T08:59:26.482Z,1.9873
2023-04-15T09:00:30.373Z,2.7624
2023-04-15T09:01:34.376Z,2.4487
2023-04-15T09:02:38.344Z,2.4241
2023-04-15T09:03:42.447Z,2.3825
2023-04-15T09:04:46.369Z,2.1459
2023-04-15T09:05:52.705Z,2.0870
2023-04-15T09:06:51.791Z,2.1811
2023-04-15T09:07:55.715Z,1.8719
2023-04-15T09:08:59.629Z,2.4318
2023-04-15T09:10:03.784Z,2.5502
2023-04-15T09:11:07.701Z,3.6256
2023-04-15T09:12:11.625Z,2.5684
2023-04-15T09:13:15.738Z,2.6158
2023-04-15T09:14:19.648Z,2.7385
2023-04-15T09:15:23.552Z,2.1288
2023-04-15T09:16:27.501Z,3.2918
2023-04-15T09:17:31.446Z,2.5966
2023-04-15T09:18:35.341Z,2.5611
2023-04-15T09:19:39.280Z,2.2831
2023-04-15T09:20:43.144Z,2.3821
2023-04-15T09:21:47.049Z,2.2542
2023-04-15T09:22:50.945Z,2.8162
2023-04-15T09:23:54.853Z,2.4402
2023-04-15T09:24:58.858Z,2.0340
2023-04-15T09:26:02.748Z,2.1531
2023-04-15T09:27:06.631Z,2.5468
2023-04-15T09:28:10.557Z,2.4441
2023-04-15T09:29:14.398Z,2.2607
2023-04-15T09:30:18.302Z,2.1926
2023-04-15T09:31:22.244Z,2.8258
2023-04-15T09:32:26.562Z,3.1269
2023-04-15T09:33:30.447Z,2.1301
2023-04-15T09:34:34.351Z,3.0089
2023-04-15T09:35:38.271Z,3.6612
2023-04-15T09:36:42.154Z,3.0160
2023-04-15T09:37:46.057Z,3.0109
2023-04-15T09:38:49.943Z,2.1421
2023-04-15T09:39:53.854Z,2.2020
2023-04-15T09:40:57.751Z,3.5770
2023-04-15T09:42:01.725Z,3.3315
2023-04-15T09:43:05.852Z,2.3538
2023-04-15T09:44:09.736Z,2.2358
2023-04-15T09:45:13.860Z,2.9313
2023-04-15T09:46:17.780Z,2.6541
2023-04-15T09:47:21.709Z,2.3209
2023-04-15T09:48:25.571Z,2.0642
2023-04-15T09:49:29.522Z,2.3230
2023-04-15T09:50:33.419Z,2.2691
2023-04-15T09:51:37.323Z,2.1820
2023-04-15T09:52:41.243Z,2.3521
2023-04-15T09:53:45.137Z,2.5598
2023-04-15T09:54:49.200Z,2.3702
2023-04-15T09:55:53.114Z,1.9722
2023-04-15T09:56:57.017Z,1.7528
2023-04-15T09:58:00.913Z,1.9762
2023-04-15T09:59:04.820Z,2.1019
2023-04-15T10:00:08.721Z,2.1698
2023-04-15T10:01:12.613Z,2.0252
2023-04-15T10:02:16.626Z,1.9545
2023-04-15T10:03:20.763Z,1.9381
2023-04-15T10:04:25.021Z,1.8040
2023-04-15T10:05:29.831Z,1.9115
2023-04-15T10:06:34.126Z,2.1289
2023-04-15T10:07:38.040Z,1.7010
2023-04-15T10:08:41.952Z,1.0465
2023-04-15T10:09:46.034Z,1.8341
2023-04-15T10:10:49.948Z,2.0078
2023-04-15T10:11:54.112Z,1.3985
2023-04-15T10:12:58.018Z,2.1783
2023-04-15T10:14:02.344Z,1.9603
2023-04-15T10:15:06.366Z,2.4815
2023-04-15T10:16:10.331Z,1.7064
2023-04-15T10:17:14.254Z,1.6549
2023-04-15T10:18:18.152Z,1.6244
2023-04-15T10:19:22.295Z,2.1568
2023-04-15T10:20:26.209Z,1.8166
2023-04-15T10:21:30.086Z,2.2600
2023-04-15T10:22:33.991Z,1.9463
2023-04-15T10:23:37.887Z,2.1952
2023-04-15T10:24:41.787Z,2.0852
2023-04-15T10:25:45.684Z,2.3197
2023-04-15T10:26:49.618Z,2.5187
2023-04-15T10:27:53.480Z,2.0052
2023-04-15T10:28:58.414Z,2.6283
2023-04-15T10:29:58.126Z,2.1482
2023-04-15T10:31:02.048Z,2.3982
2023-04-15T10:32:05.945Z,1.4279
2023-04-15T10:33:09.826Z,1.3444
2023-04-15T10:34:14.015Z,1.5241
2023-04-15T10:35:17.912Z,2.1085
2023-04-15T10:36:21.796Z,1.8432
2023-04-15T10:37:25.668Z,2.5900
2023-04-15T10:38:29.579Z,2.1439
2023-04-15T10:39:33.464Z,2.4151
2023-04-15T10:40:37.354Z,1.7948
2023-04-15T10:41:41.363Z,2.3153
2023-04-15T10:42:45.270Z,1.7137
2023-04-15T10:43:49.160Z,2.2957
2023-04-15T10:44:53.069Z,2.0818
2023-04-15T10:45:56.954Z,1.7887
2023-04-15T10:47:00.954Z,2.2158
2023-04-15T10:48:04.865Z,2.4485
2023-04-15T10:49:08.750Z,2.2153
2023-04-15T10:50:12.909Z,1.9170
2023-04-15T10:51:16.809Z,2.2372
2023-04-15T10:52:20.710Z,2.4808
2023-04-15T10:53:24.598Z,2.4263
2023-04-15T10:54:28.494Z,2.2409
2023-04-15T10:55:32.514Z,2.5895
2023-04-15T10:56:36.676Z,2.7575
2023-04-15T10:57:40.526Z,2.1193
2023-04-15T10:58:44.457Z,2.9019
2023-04-15T10:59:48.564Z,2.3515
2023-04-15T11:00:52.452Z,2.1591
2023-04-15T11:01:56.738Z,1.9735
2023-04-15T11:03:00.971Z,2.5997
2023-04-15T11:04:05.163Z,2.2003
2023-04-15T11:05:09.218Z,3.1453
2023-04-15T11:06:13.112Z,2.2823
2023-04-15T11:07:17.002Z,2.5646
2023-04-15T11:08:20.914Z,2.4649
2023-04-15T11:09:24.765Z,2.2935
2023-04-15T11:10:28.640Z,2.5447
2023-04-15T11:11:32.767Z,2.0926
2023-04-15T11:12:36.696Z,1.9946
2023-04-15T11:13:40.560Z,2.0447
2023-04-15T11:14:44.684Z,2.1183
2023-04-15T11:15:48.561Z,1.7932
2023-04-15T11:16:52.490Z,2.1762
2023-04-15T11:17:56.428Z,3.4265
2023-04-15T11:19:00.376Z,2.7827
2023-04-15T11:20:04.507Z,2.1068
2023-04-15T11:21:08.395Z,2.4980
2023-04-15T11:22:12.286Z,2.3592
2023-04-15T11:23:16.221Z,1.3385
2023-04-15T11:24:20.095Z,2.2940
2023-04-15T11:25:24.228Z,2.2607
2023-04-15T11:26:28.368Z,2.2456
2023-04-15T11:27:32.236Z,2.0632
2023-04-15T11:28:36.806Z,1.9191
2023-04-15T11:29:36.294Z,2.4993
2023-04-15T11:30:40.236Z,2.6983
2023-04-15T11:31:44.137Z,2.0401
2023-04-15T11:32:48.051Z,1.8650
2023-04-15T11:33:51.958Z,1.7154
2023-04-15T11:34:55.845Z,2.0114
2023-04-15T11:35:59.742Z,1.9585
2023-04-15T11:37:03.629Z,2.7573
2023-04-15T11:38:07.523Z,2.4118
2023-04-15T11:39:11.456Z,2.3017
2023-04-15T11:40:15.391Z,2.7329
2023-04-15T11:41:19.237Z,2.3949
2023-04-15T11:42:23.437Z,2.7524
2023-04-15T11:43:27.329Z,2.1594
2023-04-15T11:44:31.468Z,2.5512
2023-04-15T11:45:35.390Z,1.9371
2023-04-15T11:46:39.252Z,2.4575
2023-04-15T11:47:43.192Z,3.4344
2023-04-15T11:48:47.106Z,2.5593
2023-04-15T11:49:50.993Z,2.3116
2023-04-15T11:50:54.904Z,2.2452
2023-04-15T11:51:58.798Z,2.4834
2023-04-15T11:53:02.707Z,1.8088
2023-04-15T11:54:06.720Z,2.1893
2023-04-15T11:55:10.742Z,1.5407
2023-04-15T11:56:14.622Z,1.8845
2023-04-15T11:57:18.756Z,2.1146
2023-04-15T11:58:22.662Z,2.0360
2023-04-15T11:59:38.948Z,1.7200
2023-04-15T12:00:31.255Z,1.9927
2023-04-15T12:01:35.217Z,1.7930
2023-04-15T12:02:39.227Z,2.6367
2023-04-15T12:03:43.276Z,2.9448
2023-04-15T12:04:47.556Z,2.4457
2023-04-15T12:05:51.426Z,2.3285
2023-04-15T12:06:55.338Z,3.2082
2023-04-15T12:07:59.230Z,2.4809
2023-04-15T12:09:03.474Z,2.3629
2023-04-15T12:10:07.348Z,1.6037
2023-04-15T12:11:11.226Z,2.9391
2023-04-15T12:12:15.361Z,1.8944
2023-04-15T12:13:19.244Z,2.3252
2023-04-15T12:14:23.149Z,2.5745
2023-04-15T12:15:27.034Z,3.3804
2023-04-15T12:16:30.933Z,2.4798
2023-04-15T12:17:52.153Z,2.0174
2023-04-15T12:18:39.310Z,2.2309
2023-04-15T12:19:43.420Z,2.1167
2023-04-15T12:20:47.299Z,2.4441
2023-04-15T12:21:51.202Z,1.7283
2023-04-15T12:22:55.086Z,1.8082
2023-04-15T12:23:59.305Z,1.7368
2023-04-15T12:25:03.203Z,2.8635
2023-04-15T12:26:07.087Z,2.1905
2023-04-15T12:27:11.302Z,2.7797
2023-04-15T12:28:15.189Z,1.8830
2023-04-15T12:29:19.139Z,2.1112
2023-04-15T12:30:22.983Z,2.1053
2023-04-15T12:31:26.911Z,2.2394
2023-04-15T12:32:30.799Z,2.1398
2023-04-15T12:33:34.716Z,1.8883
2023-04-15T12:34:38.586Z,2.2489
2023-04-15T12:35:42.489Z,2.4682
2023-04-15T12:36:46.405Z,1.8880
2023-04-15T12:37:50.273Z,1.9783
2023-04-15T12:38:54.421Z,2.5900
2023-04-15T12:39:58.274Z,1.8439
2023-04-15T12:41:02.168Z,2.8639
2023-04-15T12:42:06.080Z,2.4636
2023-04-15T12:43:09.977Z,2.6007
2023-04-15T12:44:13.864Z,1.9531
2023-04-15T12:45:17.777Z,2.0464
2023-04-15T12:46:21.770Z,2.3471
2023-04-15T12:47:25.756Z,2.3216
2023-04-15T12:48:29.656Z,1.9000
2023-04-15T12:49:33.601Z,1.7659
2023-04-15T12:50:37.508Z,1.8907
2023-04-15T12:51:41.395Z,2.2864
2023-04-15T12:52:45.303Z,2.3876
2023-04-15T12:53:49.413Z,2.7002
2023-04-15T12:54:53.318Z,2.0910
2023-04-15T12:55:57.208Z,1.7496
2023-04-15T12:57:01.297Z,1.4423
2023-04-15T12:58:05.185Z,1.9010
2023-04-15T12:59:09.101Z,3.0919
2023-04-15T13:00:12.995Z,2.0656
2023-04-15T13:01:13.185Z,1.5052
2023-04-15T13:02:17.159Z,1.6498
2023-04-15T13:03:21.196Z,1.5977
2023-04-15T13:04:25.181Z,1.5290
2023-04-15T13:05:29.098Z,1.4994
2023-04-15T13:06:32.984Z,2.3698
2023-04-15T13:07:36.891Z,1.6825
2023-04-15T13:08:47.969Z,1.1225
2023-04-15T13:09:45.591Z,2.7980
2023-04-15T13:10:49.471Z,2.2570
2023-04-15T13:11:53.379Z,2.1064
2023-04-15T13:12:57.269Z,2.0061
2023-04-15T13:14:01.513Z,2.3160
2023-04-15T13:15:05.787Z,1.6767
2023-04-15T13:16:10.064Z,1.5102
2023-04-15T13:17:13.966Z,1.7952
2023-04-15T13:18:17.871Z,1.3999